createdAt,value
2018-03-18T00:00:54.925Z,2.24
2018-03-18T00:01:54.934Z,2.25
2018-03-18T00:02:54.946Z,2.31
2018-03-18T00:03:54.959Z,2.17
2018-03-18T00:04:54.967Z,2.24
2018-03-18T00:05:55.243Z,2.25
2018-03-18T00:06:55.243Z,2.28
2018-03-18T00:07:54.757Z,2.32
2018-03-18T00:08:55.015Z,2.25
2018-03-18T00:09:55.038Z,2.22
2018-03-18T00:10:55.049Z,2.17
2018-03-18T00:11:55.301Z,2.25
2018-03-18T00:12:55.058Z,2.31
2018-03-18T00:13:55.323Z,2.25
2018-03-18T00:14:55.337Z,2.33
2018-03-18T00:15:55.351Z,2.36
2018-03-18T00:16:55.103Z,2.32
2018-03-18T00:17:55.120Z,2.22
2018-03-18T00:18:55.132Z,2.31
2018-03-18T00:19:55.145Z,2.32
2018-03-18T00:20:55.171Z,2.26
2018-03-18T00:21:55.165Z,2.29
2018-03-18T00:22:55.181Z,2.26
2018-03-18T00:23:55.449Z,2.22
2018-03-18T00:24:55.459Z,2.14
2018-03-18T00:25:55.466Z,2.26
2018-03-18T00:26:55.232Z,2.13
2018-03-18T00:27:55.504Z,2.22
2018-03-18T00:28:55.260Z,2.07
2018-03-18T00:29:55.518Z,2.18
2018-03-18T00:30:55.280Z,2.17
2018-03-18T00:31:55.304Z,2.29
2018-03-18T00:32:55.302Z,2.18
2018-03-18T00:33:55.568Z,2.1
2018-03-18T00:34:55.582Z,2.25
2018-03-18T00:35:55.594Z,2.17
2018-03-18T00:36:55.349Z,2.29
2018-03-18T00:37:55.617Z,2.22
2018-03-18T00:38:55.421Z,2.14
2018-03-18T00:39:55.132Z,2.18
2018-03-18T00:40:55.655Z,2.17
2018-03-18T00:41:55.409Z,2.14
2018-03-18T00:42:55.679Z,1.99
2018-03-18T00:43:55.686Z,2.04
2018-03-18T00:44:55.192Z,2.14
2018-03-18T00:45:55.476Z,2.13
2018-03-18T00:46:55.234Z,2.1
2018-03-18T00:47:55.728Z,2.22
2018-03-18T00:48:55.492Z,2.17
2018-03-18T00:49:55.508Z,2.07
2018-03-18T00:50:55.767Z,2.24
2018-03-18T00:51:55.779Z,2.25
2018-03-18T00:52:55.798Z,2.2
2018-03-18T00:53:55.801Z,2.32
2018-03-18T00:54:55.822Z,2.44
2018-03-18T00:55:55.576Z,2.51
2018-03-18T00:56:55.841Z,2.5
2018-03-18T00:57:55.860Z,2.49
2018-03-18T00:58:56.015Z,2.56
2018-03-18T00:59:55.876Z,2.53
2018-03-18T01:00:55.634Z,2.53
2018-03-18T01:01:55.642Z,2.5
2018-03-18T01:02:55.669Z,2.39
2018-03-18T01:03:55.414Z,2.43
2018-03-18T01:04:55.679Z,2.47
2018-03-18T01:05:55.953Z,2.56
2018-03-18T01:06:55.959Z,2.71
2018-03-18T01:07:55.718Z,2.67
2018-03-18T01:08:55.983Z,2.77
2018-03-18T01:09:55.740Z,2.67
2018-03-18T01:10:56.012Z,2.67
2018-03-18T01:11:55.765Z,2.86
2018-03-18T01:12:55.777Z,2.87
2018-03-18T01:13:55.838Z,2.86
2018-03-18T01:14:56.052Z,2.77
2018-03-18T01:15:56.113Z,2.71
2018-03-18T01:16:56.084Z,2.64
2018-03-18T01:17:56.088Z,2.67
2018-03-18T01:18:56.100Z,2.57
2018-03-18T01:19:55.863Z,2.32
2018-03-18T01:20:56.129Z,2.24
2018-03-18T01:21:56.146Z,2.22
2018-03-18T01:22:55.895Z,2.2
2018-03-18T01:23:56.167Z,2.28
2018-03-18T01:24:55.925Z,2.26
2018-03-18T01:25:55.935Z,2.15
2018-03-18T01:26:56.222Z,2.25
2018-03-18T01:27:55.964Z,2.2
2018-03-18T01:28:56.290Z,2.31
2018-03-18T01:29:56.238Z,2.43
2018-03-18T01:30:56.250Z,2.47
2018-03-18T01:31:56.260Z,2.46
2018-03-18T01:32:56.020Z,2.46
2018-03-18T01:33:56.035Z,2.49
2018-03-18T01:34:56.303Z,2.36
2018-03-18T01:35:56.062Z,2.42
2018-03-18T01:36:56.336Z,2.43
2018-03-18T01:37:56.082Z,2.32
2018-03-18T01:38:56.094Z,2.28
2018-03-18T01:39:56.358Z,2.24
2018-03-18T01:40:56.373Z,2.24
2018-03-18T01:41:56.382Z,2.2
2018-03-18T01:42:56.445Z,2.44
2018-03-18T01:43:56.417Z,2.42
2018-03-18T01:44:56.421Z,2.56
2018-03-18T01:45:56.176Z,2.62
2018-03-18T01:46:56.195Z,2.61
2018-03-18T01:47:56.451Z,2.6
2018-03-18T01:48:56.211Z,2.61
2018-03-18T01:49:56.480Z,2.49
2018-03-18T01:50:56.239Z,2.5
2018-03-18T01:51:56.253Z,2.15
2018-03-18T01:52:56.253Z,2.22
2018-03-18T01:53:56.016Z,2.24
2018-03-18T01:54:56.534Z,2.14
2018-03-18T01:55:56.550Z,2.32
2018-03-18T01:56:56.305Z,2.26
2018-03-18T01:57:56.576Z,2.36
2018-03-18T01:58:56.097Z,2.43
2018-03-18T01:59:56.354Z,2.38
2018-03-18T02:00:56.353Z,2.2
2018-03-18T02:01:56.624Z,2.18
2018-03-18T02:02:56.633Z,2.33
2018-03-18T02:03:56.389Z,2.29
2018-03-18T02:04:56.666Z,2.28
2018-03-18T02:05:56.666Z,2.28
2018-03-18T02:06:56.682Z,2.24
2018-03-18T02:07:56.744Z,2.15
2018-03-18T02:08:56.706Z,2.22
2018-03-18T02:09:56.462Z,2.1
2018-03-18T02:10:56.738Z,1.88
2018-03-18T02:11:56.537Z,1.99
2018-03-18T02:12:56.755Z,1.92
2018-03-18T02:13:56.567Z,1.76
2018-03-18T02:14:56.271Z,1.76
2018-03-18T02:15:56.533Z,1.76
2018-03-18T02:16:56.807Z,1.66
2018-03-18T02:17:56.562Z,1.62
2018-03-18T02:18:56.825Z,1.7
2018-03-18T02:19:56.582Z,1.6
2018-03-18T02:20:56.847Z,1.73
2018-03-18T02:21:56.860Z,1.78
2018-03-18T02:22:56.869Z,1.74
2018-03-18T02:23:56.906Z,1.88
2018-03-18T02:24:56.739Z,1.87
2018-03-18T02:25:56.677Z,1.84
2018-03-18T02:26:56.410Z,1.92
2018-03-18T02:27:56.927Z,1.78
2018-03-18T02:28:56.936Z,1.7
2018-03-18T02:29:56.745Z,1.66
2018-03-18T02:30:56.978Z,1.76
2018-03-18T02:31:56.725Z,1.77
2018-03-18T02:32:56.748Z,1.62
2018-03-18T02:33:56.990Z,1.58
2018-03-18T02:34:56.998Z,1.52
2018-03-18T02:35:56.753Z,1.55
2018-03-18T02:36:56.526Z,1.59
2018-03-18T02:37:57.055Z,1.49
2018-03-18T02:38:57.061Z,1.52
2018-03-18T02:39:56.824Z,1.56
2018-03-18T02:40:57.142Z,1.52
2018-03-18T02:41:57.100Z,1.44
2018-03-18T02:42:57.109Z,1.48
2018-03-18T02:43:57.118Z,1.48
2018-03-18T02:44:56.922Z,1.34
2018-03-18T02:45:56.890Z,1.28
2018-03-18T02:46:57.152Z,1.31
2018-03-18T02:47:57.163Z,1.3
2018-03-18T02:48:57.193Z,1.45
2018-03-18T02:49:56.944Z,1.5
2018-03-18T02:50:56.943Z,1.45
2018-03-18T02:51:57.215Z,1.58
2018-03-18T02:52:57.248Z,1.6
2018-03-18T02:53:56.987Z,1.66
2018-03-18T02:54:56.984Z,1.66
2018-03-18T02:55:57.260Z,1.74
2018-03-18T02:56:57.271Z,1.74
2018-03-18T02:57:57.276Z,1.87
2018-03-18T02:58:57.336Z,1.85
2018-03-18T02:59:57.043Z,1.99
2018-03-18T03:00:57.307Z,1.81
2018-03-18T03:01:57.074Z,1.74
2018-03-18T03:02:57.329Z,1.73
2018-03-18T03:03:57.360Z,1.66
2018-03-18T03:04:57.096Z,1.78
2018-03-18T03:05:57.367Z,1.76
2018-03-18T03:06:57.384Z,1.62
2018-03-18T03:07:57.397Z,1.63
2018-03-18T03:08:57.427Z,1.71
2018-03-18T03:09:56.911Z,1.49
2018-03-18T03:10:57.425Z,1.55
2018-03-18T03:11:57.433Z,1.62
2018-03-18T03:12:57.192Z,1.66
2018-03-18T03:13:57.202Z,1.62
2018-03-18T03:14:57.466Z,1.7
2018-03-18T03:15:57.229Z,1.78
2018-03-18T03:16:57.500Z,1.77
2018-03-18T03:17:57.502Z,1.8
2018-03-18T03:18:57.256Z,1.73
2018-03-18T03:19:57.526Z,1.71
2018-03-18T03:20:57.279Z,1.74
2018-03-18T03:21:57.549Z,1.7
2018-03-18T03:22:57.303Z,1.77
2018-03-18T03:23:57.570Z,1.73
2018-03-18T03:24:57.580Z,1.81
2018-03-18T03:25:57.349Z,1.89
2018-03-18T03:26:57.348Z,1.71
2018-03-18T03:27:57.615Z,1.78
2018-03-18T03:28:57.630Z,1.77
2018-03-18T03:29:57.387Z,1.73
2018-03-18T03:30:57.655Z,1.74
2018-03-18T03:31:57.405Z,1.63
2018-03-18T03:32:57.429Z,1.66
2018-03-18T03:33:57.480Z,1.58
2018-03-18T03:34:57.692Z,1.6
2018-03-18T03:35:57.707Z,1.58
2018-03-18T03:36:57.718Z,1.63
2018-03-18T03:37:57.725Z,1.6
2018-03-18T03:38:57.746Z,1.62
2018-03-18T03:39:57.822Z,1.63
2018-03-18T03:40:57.765Z,1.62
2018-03-18T03:41:57.787Z,1.62
2018-03-18T03:42:57.533Z,1.67
2018-03-18T03:43:57.812Z,1.44
2018-03-18T03:44:57.808Z,1.49
2018-03-18T03:45:57.822Z,1.5
2018-03-18T03:46:57.574Z,1.49
2018-03-18T03:47:57.844Z,1.56
2018-03-18T03:48:57.649Z,1.59
2018-03-18T03:49:57.868Z,1.7
2018-03-18T03:50:57.620Z,1.62
2018-03-18T03:51:57.887Z,1.59
2018-03-18T03:52:57.894Z,1.62
2018-03-18T03:53:57.657Z,1.59
2018-03-18T03:54:57.664Z,1.62
2018-03-18T03:55:57.940Z,1.59
2018-03-18T03:56:57.950Z,1.63
2018-03-18T03:57:57.697Z,1.62
2018-03-18T03:58:57.711Z,1.68
2018-03-18T03:59:57.718Z,1.77
2018-03-18T04:00:57.734Z,1.73
2018-03-18T04:01:57.998Z,1.76
2018-03-18T04:02:58.006Z,1.78
2018-03-18T04:03:58.028Z,1.68
2018-03-18T04:04:58.032Z,1.56
2018-03-18T04:05:57.549Z,1.68
2018-03-18T04:06:58.066Z,1.62
2018-03-18T04:07:58.070Z,1.74
2018-03-18T04:08:57.839Z,1.66
2018-03-18T04:09:57.834Z,1.63
2018-03-18T04:10:57.589Z,1.7
2018-03-18T04:11:57.855Z,1.67
2018-03-18T04:12:57.868Z,1.74
2018-03-18T04:13:57.625Z,1.71
2018-03-18T04:14:57.886Z,1.74
2018-03-18T04:15:57.901Z,1.77
2018-03-18T04:16:58.170Z,1.76
2018-03-18T04:17:58.183Z,1.63
2018-03-18T04:18:58.194Z,1.68
2018-03-18T04:19:58.210Z,1.91
2018-03-18T04:20:57.726Z,1.89
2018-03-18T04:21:58.282Z,2.04
2018-03-18T04:22:58.033Z,1.95
2018-03-18T04:23:58.246Z,1.88
2018-03-18T04:24:57.752Z,1.71
2018-03-18T04:25:58.263Z,1.71
2018-03-18T04:26:58.032Z,1.74
2018-03-18T04:27:58.304Z,1.91
2018-03-18T04:28:58.048Z,1.71
2018-03-18T04:29:58.062Z,1.74
2018-03-18T04:30:58.072Z,1.63
2018-03-18T04:31:58.081Z,1.68
2018-03-18T04:32:58.091Z,1.71
2018-03-18T04:33:58.121Z,1.81
2018-03-18T04:34:58.370Z,1.74
2018-03-18T04:35:58.126Z,1.8
2018-03-18T04:36:58.390Z,1.77
2018-03-18T04:37:58.198Z,1.7
2018-03-18T04:38:58.158Z,1.68
2018-03-18T04:39:58.430Z,1.73
2018-03-18T04:40:58.444Z,1.63
2018-03-18T04:41:58.462Z,1.6
2018-03-18T04:42:58.216Z,1.53
2018-03-18T04:43:58.232Z,1.52
2018-03-18T04:44:58.480Z,1.48
2018-03-18T04:45:58.496Z,1.48
2018-03-18T04:46:58.500Z,1.48
2018-03-18T04:47:58.516Z,1.58
2018-03-18T04:48:58.528Z,1.6
2018-03-18T04:49:58.287Z,1.52
2018-03-18T04:50:58.569Z,1.48
2018-03-18T04:51:58.573Z,1.44
2018-03-18T04:52:58.321Z,1.3
2018-03-18T04:53:58.595Z,1.19
2018-03-18T04:54:58.598Z,1.2
2018-03-18T04:55:58.358Z,1.23
2018-03-18T04:56:58.372Z,1.32
2018-03-18T04:57:58.125Z,1.44
2018-03-18T04:58:58.657Z,1.44
2018-03-18T04:59:58.667Z,1.32
2018-03-18T05:00:58.657Z,1.22
2018-03-18T05:01:58.432Z,1.37
2018-03-18T05:02:58.677Z,1.4
2018-03-18T05:03:58.448Z,1.35
2018-03-18T05:04:58.699Z,1.42
2018-03-18T05:05:58.462Z,1.32
2018-03-18T05:06:58.775Z,1.3
2018-03-18T05:07:58.738Z,1.37
2018-03-18T05:08:58.755Z,1.17
2018-03-18T05:09:58.757Z,1.22
2018-03-18T05:10:58.262Z,1.12
2018-03-18T05:11:58.792Z,1.04
2018-03-18T05:12:58.786Z,1.01
2018-03-18T05:13:58.555Z,0.95
2018-03-18T05:14:58.565Z,0.94
2018-03-18T05:15:58.318Z,1.02
2018-03-18T05:16:58.334Z,1.04
2018-03-18T05:17:58.854Z,0.95
2018-03-18T05:18:58.609Z,0.91
2018-03-18T05:19:58.619Z,0.99
2018-03-18T05:20:58.880Z,1.12
2018-03-18T05:21:58.643Z,1.1
2018-03-18T05:22:58.649Z,1.26
2018-03-18T05:23:58.707Z,1.19
2018-03-18T05:24:58.925Z,1.34
2018-03-18T05:25:58.934Z,1.26
2018-03-18T05:26:58.945Z,1.28
2018-03-18T05:27:58.956Z,1.34
2018-03-18T05:28:58.714Z,1.28
2018-03-18T05:29:58.984Z,1.22
2018-03-18T05:30:58.997Z,1.23
2018-03-18T05:31:59.004Z,1.24
2018-03-18T05:32:59.011Z,1.35
2018-03-18T05:33:58.771Z,1.16
2018-03-18T05:34:59.031Z,1.17
2018-03-18T05:35:58.790Z,1.2
2018-03-18T05:36:58.800Z,1.2
2018-03-18T05:37:58.812Z,1.17
2018-03-18T05:38:58.874Z,1.23
2018-03-18T05:39:58.835Z,1.23
2018-03-18T05:40:59.099Z,1.24
2018-03-18T05:41:59.105Z,1.12
2018-03-18T05:42:59.126Z,1.24
2018-03-18T05:43:59.131Z,1.41
2018-03-18T05:44:59.141Z,1.49
2018-03-18T05:45:58.897Z,1.45
2018-03-18T05:46:58.912Z,1.22
2018-03-18T05:47:58.924Z,1.23
2018-03-18T05:48:59.223Z,1.28
2018-03-18T05:49:58.940Z,1.35
2018-03-18T05:50:59.207Z,1.13
2018-03-18T05:51:59.218Z,1.22
2018-03-18T05:52:58.976Z,1.19
2018-03-18T05:53:59.490Z,1.23
2018-03-18T05:54:59.247Z,1.19
2018-03-18T05:55:59.264Z,1.35
2018-03-18T05:56:59.019Z,1.32
2018-03-18T05:57:59.294Z,1.31
2018-03-18T05:58:59.050Z,1.31
2018-03-18T05:59:59.338Z,1.48
2018-03-18T06:00:59.320Z,1.32
2018-03-18T06:01:58.820Z,1.48
2018-03-18T06:02:59.338Z,1.42
2018-03-18T06:03:59.351Z,1.48
2018-03-18T06:04:59.105Z,1.44
2018-03-18T06:05:59.373Z,1.48
2018-03-18T06:06:59.140Z,1.42
2018-03-18T06:07:59.138Z,1.34
2018-03-18T06:08:59.409Z,1.52
2018-03-18T06:09:59.417Z,1.55
2018-03-18T06:10:59.428Z,1.52
2018-03-18T06:11:59.490Z,1.49
2018-03-18T06:12:59.457Z,1.4
2018-03-18T06:13:59.462Z,1.42
2018-03-18T06:14:59.220Z,1.35
2018-03-18T06:15:59.246Z,1.42
2018-03-18T06:16:59.497Z,1.49
2018-03-18T06:17:59.349Z,1.55
2018-03-18T06:18:59.518Z,1.56
2018-03-18T06:19:59.276Z,1.7
2018-03-18T06:20:59.290Z,1.76
2018-03-18T06:21:59.563Z,1.49
2018-03-18T06:22:59.054Z,1.52
2018-03-18T06:23:59.571Z,1.55
2018-03-18T06:24:59.148Z,1.56
2018-03-18T06:25:59.340Z,1.52
2018-03-18T06:26:59.403Z,1.53
2018-03-18T06:27:59.366Z,1.48
2018-03-18T06:28:59.381Z,1.3
2018-03-18T06:29:59.635Z,1.28
2018-03-18T06:30:59.649Z,1.24
2018-03-18T06:31:59.413Z,1.3
2018-03-18T06:32:59.417Z,1.28
2018-03-18T06:33:59.450Z,1.22
2018-03-18T06:34:59.698Z,1.28
2018-03-18T06:35:59.452Z,1.17
2018-03-18T06:36:59.765Z,1.22
2018-03-18T06:37:59.473Z,1.37
2018-03-18T06:38:59.747Z,1.37
2018-03-18T06:39:59.758Z,1.4
2018-03-18T06:40:59.768Z,1.44
2018-03-18T06:41:59.777Z,1.48
2018-03-18T06:42:59.533Z,1.4
2018-03-18T06:43:59.796Z,1.26
2018-03-18T06:44:59.547Z,1.23
2018-03-18T06:45:59.558Z,1.22
2018-03-18T06:46:59.821Z,1.2
2018-03-18T06:47:59.837Z,1.23
2018-03-18T06:48:59.592Z,1.16
2018-03-18T06:49:59.602Z,1.05
2018-03-18T06:50:59.874Z,1.06
2018-03-18T06:52:00.126Z,1.08
2018-03-18T06:52:59.388Z,1.01
2018-03-18T06:53:59.395Z,0.92
2018-03-18T06:54:59.911Z,0.95
2018-03-18T06:55:59.437Z,1.13
2018-03-18T06:56:59.934Z,1.05
2018-03-18T06:57:59.944Z,1.08
2018-03-18T06:58:59.960Z,1.2
2018-03-18T06:59:59.976Z,1.06
2018-03-18T07:00:59.985Z,1.05
2018-03-18T07:02:00.002Z,1.19
2018-03-18T07:02:59.756Z,1.32
2018-03-18T07:04:00.018Z,1.3
2018-03-18T07:04:59.780Z,1.22
2018-03-18T07:06:00.041Z,1.28
2018-03-18T07:06:59.801Z,1.16
2018-03-18T07:08:00.064Z,1.2
2018-03-18T07:08:59.823Z,1.23
2018-03-18T07:10:00.088Z,1.23
2018-03-18T07:11:00.151Z,1.32
2018-03-18T07:11:59.854Z,1.28
2018-03-18T07:12:59.863Z,1.2
2018-03-18T07:14:00.133Z,1.23
2018-03-18T07:14:59.891Z,1.28
2018-03-18T07:16:00.156Z,1.19
2018-03-18T07:17:00.165Z,1.24
2018-03-18T07:18:00.179Z,1.3
2018-03-18T07:19:00.200Z,1.35
2018-03-18T07:20:00.293Z,1.41
2018-03-18T07:21:00.209Z,1.48
2018-03-18T07:21:59.966Z,1.45
2018-03-18T07:23:00.233Z,1.49
2018-03-18T07:24:00.245Z,1.52
2018-03-18T07:25:00.001Z,1.56
2018-03-18T07:26:00.010Z,1.5
2018-03-18T07:27:00.023Z,1.48
2018-03-18T07:28:00.036Z,1.49
2018-03-18T07:29:00.298Z,1.42
2018-03-18T07:30:00.056Z,1.26
2018-03-18T07:31:00.070Z,1.28
2018-03-18T07:32:00.340Z,1.24
2018-03-18T07:33:00.087Z,1.31
2018-03-18T07:34:00.358Z,1.2
2018-03-18T07:35:00.376Z,1.2
2018-03-18T07:36:00.400Z,1.37
2018-03-18T07:37:00.386Z,1.3
2018-03-18T07:38:00.423Z,1.17
2018-03-18T07:39:00.159Z,1.28
2018-03-18T07:40:00.474Z,1.2
2018-03-18T07:41:00.440Z,1.3
2018-03-18T07:42:00.446Z,1.32
2018-03-18T07:43:00.464Z,1.3
2018-03-18T07:44:00.467Z,1.2
2018-03-18T07:45:00.233Z,1.26
2018-03-18T07:46:00.238Z,1.34
2018-03-18T07:47:00.246Z,1.34
2018-03-18T07:48:00.262Z,1.2
2018-03-18T07:49:00.527Z,1.2
2018-03-18T07:50:00.536Z,1.26
2018-03-18T07:51:00.545Z,1.28
2018-03-18T07:52:00.335Z,1.24
2018-03-18T07:53:00.574Z,1.28
2018-03-18T07:54:00.583Z,1.24
2018-03-18T07:55:00.392Z,1.3
2018-03-18T07:56:00.611Z,1.17
2018-03-18T07:57:00.632Z,1.1
2018-03-18T07:58:00.630Z,1.24
2018-03-18T07:59:00.395Z,0.95
2018-03-18T08:00:00.398Z,0.94
2018-03-18T08:01:00.672Z,1.2
2018-03-18T08:02:00.803Z,1.17
2018-03-18T08:03:00.684Z,1.24
2018-03-18T08:04:00.696Z,1.19
2018-03-18T08:05:00.707Z,1.34
2018-03-18T08:06:00.464Z,1.4
2018-03-18T08:07:00.730Z,1.58
2018-03-18T08:08:00.749Z,1.44
2018-03-18T08:09:00.500Z,1.24
2018-03-18T08:10:00.770Z,1.31
2018-03-18T08:11:00.832Z,1.34
2018-03-18T08:12:00.782Z,1.22
2018-03-18T08:13:00.796Z,1.22
2018-03-18T08:14:00.876Z,1.2
2018-03-18T08:15:00.575Z,1.14
2018-03-18T08:16:00.325Z,1.13
2018-03-18T08:17:00.839Z,1.23
2018-03-18T08:18:00.598Z,1.34
2018-03-18T08:19:00.866Z,1.38
2018-03-18T08:20:00.962Z,1.38
2018-03-18T08:21:00.916Z,1.35
2018-03-18T08:22:00.896Z,1.34
2018-03-18T08:23:00.655Z,1.2
2018-03-18T08:24:00.664Z,1.32
2018-03-18T08:25:00.927Z,1.4
2018-03-18T08:26:00.690Z,1.53
2018-03-18T08:27:00.999Z,1.59
2018-03-18T08:28:00.710Z,1.78
2018-03-18T08:29:00.980Z,1.76
2018-03-18T08:30:01.014Z,1.74
2018-03-18T08:31:00.746Z,1.85
2018-03-18T08:32:01.009Z,1.8
2018-03-18T08:33:00.764Z,1.87
2018-03-18T08:34:00.776Z,1.92
2018-03-18T08:35:01.042Z,1.85
2018-03-18T08:36:01.148Z,1.7
2018-03-18T08:37:01.086Z,1.71
2018-03-18T08:38:00.832Z,1.78
2018-03-18T08:39:01.093Z,1.95
2018-03-18T08:40:01.101Z,2.15
2018-03-18T08:41:01.117Z,2.04
2018-03-18T08:42:01.142Z,2.15
2018-03-18T08:43:01.038Z,2.28
2018-03-18T08:44:00.898Z,2.42
2018-03-18T08:45:00.906Z,2.57
2018-03-18T08:46:01.190Z,2.69
2018-03-18T08:47:01.183Z,2.8
2018-03-18T08:48:01.247Z,2.79
2018-03-18T08:49:01.219Z,2.97
2018-03-18T08:50:00.978Z,3.14
2018-03-18T08:51:01.235Z,3.16
2018-03-18T08:52:01.006Z,2.97
2018-03-18T08:53:01.267Z,3.14
2018-03-18T08:54:01.280Z,3.22
2018-03-18T08:55:01.291Z,3.4
2018-03-18T08:56:01.324Z,3.44
2018-03-18T08:57:00.810Z,3.45
2018-03-18T08:58:01.078Z,3.53
2018-03-18T08:59:01.351Z,3.55
2018-03-18T09:00:01.420Z,3.62
2018-03-18T09:01:01.377Z,3.7
2018-03-18T09:02:01.137Z,3.78
2018-03-18T09:03:01.144Z,3.48
2018-03-18T09:04:01.417Z,3.6
2018-03-18T09:05:01.435Z,3.7
2018-03-18T09:06:01.450Z,3.55
2018-03-18T09:07:01.453Z,3.5
2018-03-18T09:08:01.471Z,3.42
2018-03-18T09:09:00.977Z,3.36
2018-03-18T09:10:01.499Z,3.26
2018-03-18T09:11:01.524Z,3.08
2018-03-18T09:12:01.534Z,3.18
2018-03-18T09:13:01.298Z,3.11
2018-03-18T09:14:01.298Z,3.1
2018-03-18T09:15:01.357Z,2.95
2018-03-18T09:16:01.323Z,3.21
2018-03-18T09:17:01.587Z,3.1
2018-03-18T09:18:01.597Z,3.03
2018-03-18T09:19:01.614Z,3.03
2018-03-18T09:20:01.629Z,2.97
2018-03-18T09:21:01.388Z,2.93
2018-03-18T09:22:01.396Z,2.9
2018-03-18T09:23:01.748Z,2.89
2018-03-18T09:24:01.427Z,2.83
2018-03-18T09:25:01.692Z,2.79
2018-03-18T09:26:01.704Z,2.82
2018-03-18T09:27:01.463Z,2.75
2018-03-18T09:28:01.748Z,2.77
2018-03-18T09:29:01.750Z,2.72
2018-03-18T09:30:01.509Z,2.79
2018-03-18T09:31:01.782Z,2.8
2018-03-18T09:32:01.538Z,2.95
2018-03-18T09:33:01.816Z,2.85
2018-03-18T09:34:01.610Z,2.87
2018-03-18T09:35:01.827Z,2.86
2018-03-18T09:36:01.847Z,2.92
2018-03-18T09:37:01.601Z,2.79
2018-03-18T09:38:01.870Z,2.71
2018-03-18T09:39:01.888Z,2.74
2018-03-18T09:40:01.642Z,2.8
2018-03-18T09:41:01.911Z,3.01
2018-03-18T09:42:01.918Z,3
2018-03-18T09:43:01.678Z,3.08
2018-03-18T09:44:01.950Z,3.19
2018-03-18T09:45:01.707Z,3.22
2018-03-18T09:46:01.719Z,3.13
2018-03-18T09:47:01.489Z,3.13
2018-03-18T09:48:01.996Z,2.82
2018-03-18T09:49:02.014Z,2.82
2018-03-18T09:50:02.018Z,2.92
2018-03-18T09:51:02.041Z,2.83
2018-03-18T09:52:02.060Z,2.85
2018-03-18T09:53:02.059Z,2.98
2018-03-18T09:54:02.071Z,3.16
2018-03-18T09:55:02.086Z,3.26
2018-03-18T09:56:02.115Z,3.18
2018-03-18T09:57:02.091Z,3.28
2018-03-18T09:58:01.855Z,3.34
2018-03-18T09:59:02.120Z,3.41
2018-03-18T10:00:01.960Z,3.36
2018-03-18T10:01:02.153Z,3.14
2018-03-18T10:02:02.175Z,3.18
2018-03-18T10:03:02.201Z,3.11
2018-03-18T10:04:02.207Z,3.14
2018-03-18T10:05:01.964Z,3.25
2018-03-18T10:06:01.978Z,3.11
2018-03-18T10:07:02.255Z,3.21
2018-03-18T10:08:01.999Z,3.16
2018-03-18T10:09:02.015Z,3.18
2018-03-18T10:10:01.774Z,3.13
2018-03-18T10:11:02.294Z,3.28
2018-03-18T10:12:02.304Z,3.32
2018-03-18T10:13:02.068Z,3.51
2018-03-18T10:14:02.451Z,3.5
2018-03-18T10:15:02.371Z,3.81
2018-03-18T10:16:02.360Z,4.05
2018-03-18T10:17:02.126Z,3.86
2018-03-18T10:18:01.882Z,3.86
2018-03-18T10:19:02.410Z,3.83
2018-03-18T10:20:02.432Z,4.01
2018-03-18T10:21:02.474Z,3.98
2018-03-18T10:22:02.459Z,4.06
2018-03-18T10:23:02.455Z,4.19
2018-03-18T10:24:01.961Z,3.99
2018-03-18T10:25:02.493Z,4.06
2018-03-18T10:26:02.248Z,3.78
2018-03-18T10:27:02.520Z,3.53
2018-03-18T10:28:02.274Z,3.73
2018-03-18T10:29:02.547Z,4.02
2018-03-18T10:30:02.300Z,3.95
2018-03-18T10:31:02.565Z,3.87
2018-03-18T10:32:02.457Z,3.81
2018-03-18T10:33:02.645Z,3.83
2018-03-18T10:34:02.616Z,3.8
2018-03-18T10:35:02.621Z,3.69
2018-03-18T10:36:02.636Z,3.74
2018-03-18T10:37:02.740Z,3.77
2018-03-18T10:38:02.152Z,3.73
2018-03-18T10:39:02.675Z,3.77
2018-03-18T10:40:02.697Z,4.08
2018-03-18T10:41:02.711Z,4.23
2018-03-18T10:42:02.994Z,4.23
2018-03-18T10:43:02.477Z,4.26
2018-03-18T10:44:02.232Z,4.4
2018-03-18T10:45:02.508Z,4.44
2018-03-18T10:46:02.769Z,4.32
2018-03-18T10:47:02.583Z,4.37
2018-03-18T10:48:02.289Z,4.48
2018-03-18T10:49:02.835Z,4.82
2018-03-18T10:50:02.828Z,4.96
2018-03-18T10:51:02.596Z,4.77
2018-03-18T10:52:02.604Z,4.58
2018-03-18T10:53:02.611Z,4.5
2018-03-18T10:54:02.880Z,4.68
2018-03-18T10:55:02.905Z,4.6
2018-03-18T10:56:02.964Z,4.42
2018-03-18T10:57:02.667Z,4.6
2018-03-18T10:58:02.688Z,4.8
2018-03-18T10:59:02.460Z,4.8
2018-03-18T11:00:02.709Z,4.93
2018-03-18T11:01:02.734Z,4.74
2018-03-18T11:02:02.810Z,4.73
2018-03-18T11:03:02.754Z,4.56
2018-03-18T11:04:02.776Z,4.52
2018-03-18T11:05:02.527Z,4.35
2018-03-18T11:06:02.542Z,4.28
2018-03-18T11:07:03.071Z,4.17
2018-03-18T11:08:03.084Z,4.38
2018-03-18T11:09:03.193Z,4.24
2018-03-18T11:10:02.599Z,4.32
2018-03-18T11:11:03.123Z,4.37
2018-03-18T11:12:02.629Z,4.3
2018-03-18T11:13:02.649Z,4.37
2018-03-18T11:14:03.171Z,4.6
2018-03-18T11:15:02.673Z,4.68
2018-03-18T11:16:03.238Z,4.74
2018-03-18T11:17:02.950Z,4.84
2018-03-18T11:18:03.247Z,4.75
2018-03-18T11:19:03.228Z,4.74
2018-03-18T11:20:03.268Z,4.68
2018-03-18T11:21:03.263Z,4.74
2018-03-18T11:22:03.019Z,4.71
2018-03-18T11:23:03.034Z,4.67
2018-03-18T11:24:03.049Z,4.6
2018-03-18T11:25:03.317Z,4.73
2018-03-18T11:26:03.078Z,4.75
2018-03-18T11:27:02.840Z,4.87
2018-03-18T11:28:03.367Z,4.97
2018-03-18T11:29:03.370Z,4.9
2018-03-18T11:30:03.411Z,4.97
2018-03-18T11:31:03.152Z,4.89
2018-03-18T11:32:03.420Z,5.02
2018-03-18T11:33:03.466Z,4.94
2018-03-18T11:34:03.200Z,5.02
2018-03-18T11:35:03.463Z,5.17
2018-03-18T11:36:03.509Z,5.1
2018-03-18T11:37:03.246Z,5.18
2018-03-18T11:38:03.570Z,5.25
2018-03-18T11:39:03.265Z,5.07
2018-03-18T11:40:03.287Z,5.07
2018-03-18T11:41:03.294Z,5
2018-03-18T11:42:03.560Z,5.11
2018-03-18T11:43:03.580Z,5.33
2018-03-18T11:44:03.592Z,5.29
2018-03-18T11:45:03.101Z,5.44
2018-03-18T11:46:03.624Z,5.43
2018-03-18T11:47:03.635Z,5.39
2018-03-18T11:48:03.398Z,5.39
2018-03-18T11:49:03.433Z,5.46
2018-03-18T11:50:03.427Z,5.46
2018-03-18T11:51:03.440Z,5.5
2018-03-18T11:52:03.454Z,5.28
2018-03-18T11:53:03.783Z,5.46
2018-03-18T11:54:03.484Z,5.69
2018-03-18T11:55:03.762Z,5.59
2018-03-18T11:56:03.943Z,5.53
2018-03-18T11:57:03.779Z,5.61
2018-03-18T11:58:03.535Z,5.69
2018-03-18T11:59:03.305Z,5.59
2018-03-18T12:00:03.826Z,5.61
2018-03-18T12:01:03.851Z,5.47
2018-03-18T12:02:03.877Z,5.51
2018-03-18T12:03:03.621Z,5.56
2018-03-18T12:04:03.634Z,5.39
2018-03-18T12:05:03.903Z,5.43
2018-03-18T12:06:03.924Z,5.46
2018-03-18T12:07:03.679Z,5.51
2018-03-18T12:08:03.694Z,5.41
2018-03-18T12:09:03.961Z,5.32
2018-03-18T12:10:03.772Z,5.38
2018-03-18T12:11:03.744Z,5.61
2018-03-18T12:12:04.009Z,5.65
2018-03-18T12:13:04.042Z,5.69
2018-03-18T12:14:03.779Z,5.65
2018-03-18T12:15:04.050Z,5.44
2018-03-18T12:16:03.816Z,5.44
2018-03-18T12:17:03.824Z,5.51
2018-03-18T12:18:03.846Z,5.66
2018-03-18T12:19:03.603Z,5.57
2018-03-18T12:20:03.869Z,5.57
2018-03-18T12:21:03.630Z,5.59
2018-03-18T12:22:03.646Z,5.51
2018-03-18T12:23:04.174Z,5.36
2018-03-18T12:24:03.676Z,5.64
2018-03-18T12:25:04.199Z,5.65
2018-03-18T12:26:04.215Z,5.72
2018-03-18T12:27:04.008Z,5.66
2018-03-18T12:28:03.747Z,5.36
2018-03-18T12:29:03.739Z,5.02
2018-03-18T12:30:04.029Z,4.89
2018-03-18T12:31:04.292Z,4.89
2018-03-18T12:32:04.305Z,4.84
2018-03-18T12:33:04.322Z,4.73
2018-03-18T12:34:04.339Z,4.74
2018-03-18T12:35:03.843Z,4.82
2018-03-18T12:36:04.127Z,4.82
2018-03-18T12:37:03.870Z,4.74
2018-03-18T12:38:04.437Z,4.67
2018-03-18T12:39:04.189Z,4.74
2018-03-18T12:40:04.427Z,4.9
2018-03-18T12:41:04.180Z,4.97
2018-03-18T12:42:04.246Z,4.96
2018-03-18T12:43:04.452Z,4.92
2018-03-18T12:44:04.215Z,5.02
2018-03-18T12:45:04.241Z,5.15
2018-03-18T12:46:04.523Z,5.07
2018-03-18T12:47:04.273Z,5.05
2018-03-18T12:48:04.288Z,5.18
2018-03-18T12:49:04.297Z,5.25
2018-03-18T12:50:04.580Z,5.3
2018-03-18T12:51:04.325Z,5.28
2018-03-18T12:52:04.345Z,5.12
2018-03-18T12:53:04.102Z,4.89
2018-03-18T12:54:04.638Z,4.86
2018-03-18T12:55:04.648Z,4.9
2018-03-18T12:56:04.400Z,4.9
2018-03-18T12:57:04.731Z,4.77
2018-03-18T12:58:04.432Z,4.71
2018-03-18T12:59:04.440Z,4.6
2018-03-18T13:00:04.712Z,4.32
2018-03-18T13:01:04.471Z,4.37
2018-03-18T13:02:04.552Z,4.49
2018-03-18T13:03:04.752Z,4.38
2018-03-18T13:04:04.514Z,4.4
2018-03-18T13:05:04.546Z,4.48
2018-03-18T13:06:04.589Z,4.58
2018-03-18T13:07:04.811Z,4.4
2018-03-18T13:08:04.574Z,4.38
2018-03-18T13:09:04.331Z,4.4
2018-03-18T13:10:04.852Z,4.52
2018-03-18T13:11:04.866Z,4.6
2018-03-18T13:12:04.629Z,4.68
2018-03-18T13:13:04.888Z,4.74
2018-03-18T13:14:04.914Z,4.7
2018-03-18T13:15:04.409Z,4.62
2018-03-18T13:16:04.927Z,4.59
2018-03-18T13:17:04.946Z,4.66
2018-03-18T13:18:04.718Z,4.73
2018-03-18T13:19:04.714Z,4.6
2018-03-18T13:20:05.032Z,4.52
2018-03-18T13:21:04.748Z,4.58
2018-03-18T13:22:04.756Z,4.42
2018-03-18T13:23:05.023Z,4.45